Terminal Aerodrome Forecast
Issued by NWS

Current Version | Previous Version | Text Only | Print | Product List | Glossary On
Versions: 1 2 3 4 5 6 7 8 9 10 11 12 13 14 15 16
000
FTUS44 KLZK 212341
TAFBPK
TAF
KBPK 212341Z 2200/2224 17008KT P6SM VCTS SCT030CB BKN060
     FM220800 22009G16KT 5SM TSRA BR SCT020 OVC040CB
      TEMPO 2208/2210 VRB25G40KT 1SM +TSRA BKN012CB
     FM221200 32008KT P6SM -SHRA OVC015
     FM221800 32010G18KT P6SM VCSH SCT030 BKN060=

USA.gov is the U.S. government's official web portal to all federal, state and local government web resources and services.